CheckWX is a tool to help pilots better visualize weather data.  It is not intended as a substitute for an official pre-flight weather briefing.

17:30:47 UTC

EPKK TAF
John Paul II International Kraków-Balice Airport
Kraków, Poland
TAF EPKK 241430Z 2415/2515 VRB02KT CAVOK BECMG 2419/2422 4000 BR BKN013 OVC030 TEMPO 2422/2512 2500 RA BR BKN007 OVC013

Mar-24@
15:00 UTC

Mar-24 @ 15:00 UTC

Mar-24@
19:00 UTC

Mar-24 @ 19:00 UTC

TAF EPKK 241430Z 2415/2515 VRB02KT CAVOK
Wind
  • Variable at 2 KTS
Conditions
No significant weather
Cloud Levels
  • No significant clouds

Mar-24@
19:00 UTC

Mar-24 @ 19:00 UTC

Mar-25@
15:00 UTC

Mar-25 @ 15:00 UTC

BECMG 2419/2422 4000 BR BKN013 OVC030

Becoming

Becoming Conditions expected by Sun, Mar 24, 2019 @ 22:00 UTC

Wind
  • Variable at 2 KTS
Conditions
Mist
Cloud Levels
  • Broken at 1,300' AGL
  • Overcast at 3,000' AGL

Mar-24@
22:00 UTC

Mar-24 @ 22:00 UTC

Mar-25@
12:00 UTC

Mar-25 @ 12:00 UTC

TEMPO 2422/2512 2500 RA BR BKN007 OVC013

Temporary

Temporary Changes expected for less than half the time period

Conditions
Rain, Mist
Cloud Levels
  • Broken at 700' AGL
  • Overcast at 1,300' AGL